createdAt,value
2022-08-03T00:02:58.518Z,27.20
2022-08-03T00:09:13.302Z,27.10
2022-08-03T00:15:28.297Z,27.00
2022-08-03T00:21:38.937Z,27.00
2022-08-03T00:27:50.388Z,26.90
2022-08-03T00:34:04.309Z,27.00
2022-08-03T00:40:25.076Z,27.20
2022-08-03T00:46:39.125Z,27.40
2022-08-03T00:52:51.446Z,27.50
2022-08-03T00:59:05.693Z,27.50
2022-08-03T01:05:20.373Z,27.50
2022-08-03T01:11:37.013Z,27.60
2022-08-03T01:17:53.880Z,27.60
2022-08-03T01:24:22.873Z,27.60
2022-08-03T01:30:37.666Z,27.50
2022-08-03T01:36:54.330Z,27.20
2022-08-03T01:43:09.011Z,27.00
2022-08-03T01:49:23.730Z,26.90
2022-08-03T01:55:36.637Z,27.00
2022-08-03T02:02:28.233Z,27.00
2022-08-03T02:08:06.600Z,27.20
2022-08-03T02:14:21.772Z,27.20
2022-08-03T02:20:35.422Z,27.30
2022-08-03T02:26:47.778Z,27.40
2022-08-03T02:33:01.133Z,27.40
2022-08-03T02:39:14.230Z,27.30
2022-08-03T02:45:28.537Z,27.30
2022-08-03T02:51:41.471Z,27.30
2022-08-03T02:57:55.843Z,27.40
2022-08-03T03:04:08.780Z,27.40
2022-08-03T03:10:21.329Z,27.30
2022-08-03T03:16:33.809Z,27.30
2022-08-03T03:22:49.025Z,27.30
2022-08-03T03:29:03.070Z,27.40
2022-08-03T03:35:19.018Z,27.40
2022-08-03T03:41:33.704Z,27.30
2022-08-03T03:47:48.046Z,27.30
2022-08-03T03:54:05.755Z,27.40
2022-08-03T04:00:22.145Z,27.40
2022-08-03T04:06:51.282Z,27.40
2022-08-03T04:13:04.290Z,27.30
2022-08-03T04:19:21.032Z,27.30
2022-08-03T04:25:29.497Z,27.30
2022-08-03T04:31:43.777Z,27.30
2022-08-03T04:37:58.657Z,27.30
2022-08-03T04:44:13.597Z,27.20
2022-08-03T04:50:27.613Z,27.20
2022-08-03T04:56:41.724Z,27.20
2022-08-03T05:02:55.365Z,27.20
2022-08-03T05:09:08.222Z,27.20
2022-08-03T05:15:23.359Z,27.20
2022-08-03T05:21:52.166Z,27.10
2022-08-03T05:27:49.881Z,27.10
2022-08-03T05:34:03.836Z,27.10
2022-08-03T05:40:22.498Z,27.10
2022-08-03T05:46:36.865Z,27.10
2022-08-03T05:52:50.821Z,27.00
2022-08-03T05:59:22.768Z,27.00
2022-08-03T06:05:22.174Z,27.10
2022-08-03T06:11:35.050Z,27.00
2022-08-03T06:17:53.637Z,27.00
2022-08-03T06:24:06.531Z,27.00
2022-08-03T06:30:22.165Z,27.00
2022-08-03T06:36:34.844Z,27.00
2022-08-03T06:42:49.271Z,26.90
2022-08-03T06:49:05.671Z,26.90
2022-08-03T06:55:21.023Z,26.90
2022-08-03T07:01:33.644Z,27.00
2022-08-03T07:07:48.590Z,26.90
2022-08-03T07:14:02.941Z,26.80
2022-08-03T07:20:20.649Z,26.80
2022-08-03T07:26:34.721Z,26.80
2022-08-03T07:32:50.293Z,26.80
2022-08-03T07:39:16.578Z,26.70
2022-08-03T07:45:22.089Z,26.70
2022-08-03T07:51:34.517Z,26.80
2022-08-03T07:57:45.828Z,26.70
2022-08-03T08:04:00.037Z,26.70
2022-08-03T08:10:16.128Z,26.70
2022-08-03T08:16:30.398Z,26.70
2022-08-03T08:22:44.230Z,26.70
2022-08-03T08:28:59.046Z,26.70
2022-08-03T08:35:14.745Z,26.70
2022-08-03T08:41:32.278Z,26.50
2022-08-03T08:47:51.084Z,26.60
2022-08-03T08:54:01.496Z,26.60
2022-08-03T09:00:17.148Z,26.60
2022-08-03T09:06:27.985Z,26.60
2022-08-03T09:12:44.309Z,26.40
2022-08-03T09:18:55.534Z,26.50
2022-08-03T09:25:25.861Z,26.60
2022-08-03T09:31:26.120Z,26.60
2022-08-03T09:38:12.567Z,26.50
2022-08-03T09:43:57.337Z,26.40
2022-08-03T09:50:12.835Z,26.50
2022-08-03T09:56:35.701Z,26.50
2022-08-03T10:02:41.170Z,26.50
2022-08-03T10:08:53.731Z,26.40
2022-08-03T10:15:06.090Z,26.30
2022-08-03T10:21:22.112Z,26.40
2022-08-03T10:27:36.684Z,26.40
2022-08-03T10:33:53.352Z,26.40
2022-08-03T10:40:05.169Z,26.30
2022-08-03T10:46:19.374Z,26.30
2022-08-03T10:59:00.190Z,26.40
2022-08-03T11:05:33.707Z,26.40
2022-08-03T11:11:48.932Z,26.30
2022-08-03T11:18:16.393Z,26.30
2022-08-03T11:25:06.766Z,26.40
2022-08-03T11:31:54.455Z,26.40
2022-08-03T11:38:22.874Z,26.40
2022-08-03T11:44:52.206Z,26.20
2022-08-03T11:51:06.205Z,26.30
2022-08-03T11:57:20.431Z,26.40
2022-08-03T12:03:38.086Z,26.40
2022-08-03T12:09:48.642Z,26.50
2022-08-03T12:16:02.165Z,26.50
2022-08-03T12:22:14.662Z,26.60
2022-08-03T12:28:37.946Z,26.60
2022-08-03T12:34:57.664Z,26.60
2022-08-03T12:41:14.744Z,26.70
2022-08-03T12:47:29.198Z,26.70
2022-08-03T12:53:43.135Z,26.70
2022-08-03T12:59:57.798Z,26.80
2022-08-03T13:06:09.006Z,26.90
2022-08-03T13:12:24.034Z,27.00
2022-08-03T13:18:38.124Z,27.00
2022-08-03T13:24:53.667Z,27.00
2022-08-03T13:31:08.741Z,27.00
2022-08-03T13:37:22.932Z,27.00
2022-08-03T13:43:37.314Z,27.00
2022-08-03T13:50:00.361Z,27.00
2022-08-03T13:56:08.440Z,27.00
2022-08-03T14:02:23.436Z,27.10
2022-08-03T14:08:35.482Z,27.10
2022-08-03T14:14:49.638Z,27.20
2022-08-03T14:21:05.552Z,27.20
2022-08-03T14:27:17.634Z,27.20
2022-08-03T14:33:31.776Z,27.30
2022-08-03T14:40:00.298Z,27.40
2022-08-03T14:45:58.234Z,27.30
2022-08-03T14:52:13.501Z,27.30
2022-08-03T14:58:27.615Z,27.30
2022-08-03T15:04:40.356Z,27.30
2022-08-03T15:10:54.918Z,27.30
2022-08-03T15:17:07.385Z,27.30
2022-08-03T15:23:18.693Z,27.30
2022-08-03T15:30:06.029Z,27.40
2022-08-03T15:35:49.760Z,27.40
2022-08-03T15:42:02.102Z,27.50
2022-08-03T15:48:17.561Z,27.50
2022-08-03T15:54:33.601Z,27.40
2022-08-03T16:00:47.871Z,27.40
2022-08-03T16:07:01.723Z,27.50
2022-08-03T16:13:14.818Z,27.50
2022-08-03T16:19:30.459Z,27.50
2022-08-03T16:25:43.113Z,27.40
2022-08-03T16:31:57.184Z,27.40
2022-08-03T16:38:14.198Z,27.40
2022-08-03T16:44:27.288Z,27.40
2022-08-03T16:50:38.694Z,27.40
2022-08-03T16:56:51.334Z,27.50
2022-08-03T17:03:18.954Z,27.50
2022-08-03T17:09:21.319Z,27.60
2022-08-03T17:16:00.992Z,27.70
2022-08-03T17:21:50.843Z,27.60
2022-08-03T17:28:50.556Z,27.70
2022-08-03T17:34:20.458Z,27.70
2022-08-03T17:40:38.101Z,27.70
2022-08-03T17:46:48.441Z,27.70
2022-08-03T17:53:07.717Z,27.80
2022-08-03T17:59:50.924Z,27.70
2022-08-03T18:12:07.397Z,27.90
2022-08-03T18:18:32.303Z,27.70
2022-08-03T18:24:38.057Z,27.40
2022-08-03T18:30:54.216Z,27.20
2022-08-03T18:37:07.528Z,27.10
2022-08-03T18:43:46.189Z,27.30
2022-08-03T18:49:43.483Z,27.40
2022-08-03T18:56:02.688Z,27.50
2022-08-03T19:02:20.763Z,27.60
2022-08-03T19:08:37.025Z,27.70
2022-08-03T19:14:54.214Z,27.60
2022-08-03T19:21:12.833Z,27.70
2022-08-03T19:27:26.910Z,27.40
2022-08-03T19:33:56.104Z,27.20
2022-08-03T19:39:56.655Z,27.10
2022-08-03T19:46:13.067Z,27.00
2022-08-03T19:52:28.337Z,27.20
2022-08-03T19:58:42.465Z,27.30
2022-08-03T20:04:56.726Z,27.50
2022-08-03T20:11:11.681Z,27.50
2022-08-03T20:17:56.883Z,27.60
2022-08-03T20:23:40.449Z,27.50
2022-08-03T20:30:06.661Z,27.40
2022-08-03T20:36:14.081Z,27.20
2022-08-03T20:42:29.429Z,27.10
2022-08-03T20:48:43.009Z,27.00
2022-08-03T20:54:57.540Z,27.20
2022-08-03T21:01:10.013Z,27.40
2022-08-03T21:07:24.362Z,27.50
2022-08-03T21:12:56.698Z,27.70
2022-08-03T21:13:39.617Z,27.50
2022-08-03T21:19:53.530Z,27.50
2022-08-03T21:26:07.839Z,27.60
2022-08-03T21:32:33.296Z,27.40
2022-08-03T21:38:39.190Z,27.30
2022-08-03T21:44:49.650Z,27.10
2022-08-03T21:51:03.100Z,27.00
2022-08-03T21:57:18.869Z,27.00
2022-08-03T22:03:32.833Z,27.20
2022-08-03T22:09:50.943Z,27.40
2022-08-03T22:16:04.583Z,27.50
2022-08-03T22:22:18.698Z,27.50
2022-08-03T22:28:31.534Z,27.50
2022-08-03T22:34:44.573Z,27.60
2022-08-03T22:40:57.714Z,27.50
2022-08-03T22:47:08.390Z,27.50
2022-08-03T22:53:23.526Z,27.60
2022-08-03T22:59:40.497Z,27.50
2022-08-03T23:06:00.840Z,27.30
2022-08-03T23:12:11.039Z,27.00
2022-08-03T23:18:23.424Z,26.90
2022-08-03T23:24:36.019Z,27.00
2022-08-03T23:30:50.652Z,27.10
2022-08-03T23:37:04.191Z,27.20
2022-08-03T23:43:44.834Z,27.30
2022-08-03T23:49:35.375Z,27.30
2022-08-03T23:55:56.300Z,27.30
